sensor_id;sensor_type;location;lat;lon;timestamp;P1;durP1;ratioP1;P2;durP2;ratioP2
16352;SDS011;8286;51.274;9.542;2022-12-07T00:00:50;13.13;;;6.10;;
16352;SDS011;8286;51.274;9.542;2022-12-07T00:03:18;13.50;;;6.87;;
16352;SDS011;8286;51.274;9.542;2022-12-07T00:05:45;13.23;;;6.70;;
16352;SDS011;8286;51.274;9.542;2022-12-07T00:08:12;12.40;;;7.27;;
16352;SDS011;8286;51.274;9.542;2022-12-07T00:10:38;11.23;;;6.77;;
16352;SDS011;8286;51.274;9.542;2022-12-07T00:13:05;10.87;;;7.13;;
16352;SDS011;8286;51.274;9.542;2022-12-07T00:15:33;13.80;;;7.07;;
16352;SDS011;8286;51.274;9.542;2022-12-07T00:18:00;14.30;;;7.10;;
16352;SDS011;8286;51.274;9.542;2022-12-07T00:20:29;15.60;;;8.20;;
16352;SDS011;8286;51.274;9.542;2022-12-07T00:22:56;12.87;;;7.53;;
16352;SDS011;8286;51.274;9.542;2022-12-07T00:25:23;13.23;;;8.10;;
16352;SDS011;8286;51.274;9.542;2022-12-07T00:27:49;16.27;;;8.07;;
16352;SDS011;8286;51.274;9.542;2022-12-07T00:30:16;15.20;;;8.10;;
16352;SDS011;8286;51.274;9.542;2022-12-07T00:32:43;12.77;;;7.53;;
16352;SDS011;8286;51.274;9.542;2022-12-07T00:35:09;18.17;;;8.37;;
16352;SDS011;8286;51.274;9.542;2022-12-07T00:37:38;16.43;;;8.87;;
16352;SDS011;8286;51.274;9.542;2022-12-07T00:40:05;16.40;;;8.83;;
16352;SDS011;8286;51.274;9.542;2022-12-07T00:42:32;15.83;;;8.27;;
16352;SDS011;8286;51.274;9.542;2022-12-07T00:44:59;18.37;;;8.50;;
16352;SDS011;8286;51.274;9.542;2022-12-07T00:47:26;17.10;;;8.73;;
16352;SDS011;8286;51.274;9.542;2022-12-07T00:49:52;17.50;;;8.40;;
16352;SDS011;8286;51.274;9.542;2022-12-07T00:52:19;17.97;;;8.37;;
16352;SDS011;8286;51.274;9.542;2022-12-07T00:54:47;15.63;;;8.30;;
16352;SDS011;8286;51.274;9.542;2022-12-07T00:57:14;17.97;;;8.87;;
16352;SDS011;8286;51.274;9.542;2022-12-07T00:59:40;19.67;;;8.70;;
16352;SDS011;8286;51.274;9.542;2022-12-07T01:02:07;14.80;;;8.20;;
16352;SDS011;8286;51.274;9.542;2022-12-07T01:04:33;15.63;;;8.73;;
16352;SDS011;8286;51.274;9.542;2022-12-07T01:07:00;15.23;;;8.30;;
16352;SDS011;8286;51.274;9.542;2022-12-07T01:09:27;18.63;;;8.47;;
16352;SDS011;8286;51.274;9.542;2022-12-07T01:11:55;14.83;;;7.57;;
16352;SDS011;8286;51.274;9.542;2022-12-07T01:14:21;17.73;;;8.00;;
16352;SDS011;8286;51.274;9.542;2022-12-07T01:16:48;17.80;;;8.93;;
16352;SDS011;8286;51.274;9.542;2022-12-07T01:19:14;18.67;;;8.07;;
16352;SDS011;8286;51.274;9.542;2022-12-07T01:21:41;14.77;;;7.90;;
16352;SDS011;8286;51.274;9.542;2022-12-07T01:24:09;18.43;;;9.10;;
16352;SDS011;8286;51.274;9.542;2022-12-07T01:26:36;13.30;;;8.10;;
16352;SDS011;8286;51.274;9.542;2022-12-07T01:29:05;19.23;;;9.93;;
16352;SDS011;8286;51.274;9.542;2022-12-07T01:31:31;21.17;;;8.97;;
16352;SDS011;8286;51.274;9.542;2022-12-07T01:33:58;16.20;;;8.43;;
16352;SDS011;8286;51.274;9.542;2022-12-07T01:36:26;17.67;;;9.17;;
16352;SDS011;8286;51.274;9.542;2022-12-07T01:38:54;21.00;;;10.47;;
16352;SDS011;8286;51.274;9.542;2022-12-07T01:41:22;18.17;;;9.87;;
16352;SDS011;8286;51.274;9.542;2022-12-07T01:44:14;20.17;;;10.77;;
16352;SDS011;8286;51.274;9.542;2022-12-07T01:46:42;17.13;;;8.67;;
16352;SDS011;8286;51.274;9.542;2022-12-07T01:49:10;14.37;;;7.83;;
16352;SDS011;8286;51.274;9.542;2022-12-07T01:51:40;20.90;;;9.43;;
16352;SDS011;8286;51.274;9.542;2022-12-07T01:54:08;18.40;;;9.47;;
16352;SDS011;8286;51.274;9.542;2022-12-07T01:56:36;22.07;;;9.93;;
16352;SDS011;8286;51.274;9.542;2022-12-07T01:59:03;22.20;;;11.13;;
16352;SDS011;8286;51.274;9.542;2022-12-07T02:01:31;18.17;;;9.37;;
16352;SDS011;8286;51.274;9.542;2022-12-07T02:03:58;20.90;;;9.60;;
16352;SDS011;8286;51.274;9.542;2022-12-07T02:06:24;19.27;;;10.33;;
16352;SDS011;8286;51.274;9.542;2022-12-07T02:08:52;22.97;;;11.67;;
16352;SDS011;8286;51.274;9.542;2022-12-07T02:11:19;26.27;;;12.17;;
16352;SDS011;8286;51.274;9.542;2022-12-07T02:13:46;26.77;;;12.30;;
16352;SDS011;8286;51.274;9.542;2022-12-07T02:16:16;27.20;;;13.80;;
16352;SDS011;8286;51.274;9.542;2022-12-07T02:18:55;24.87;;;11.63;;
16352;SDS011;8286;51.274;9.542;2022-12-07T02:21:34;24.67;;;12.97;;
16352;SDS011;8286;51.274;9.542;2022-12-07T02:29:55;27.13;;;12.27;;
16352;SDS011;8286;51.274;9.542;2022-12-07T02:32:26;26.13;;;11.03;;
16352;SDS011;8286;51.274;9.542;2022-12-07T02:34:55;26.33;;;11.73;;
16352;SDS011;8286;51.274;9.542;2022-12-07T02:37:28;27.83;;;12.20;;
16352;SDS011;8286;51.274;9.542;2022-12-07T02:40:00;25.47;;;11.90;;
16352;SDS011;8286;51.274;9.542;2022-12-07T02:42:31;24.60;;;10.87;;
16352;SDS011;8286;51.274;9.542;2022-12-07T02:45:01;28.13;;;12.60;;
16352;SDS011;8286;51.274;9.542;2022-12-07T02:47:28;26.67;;;11.37;;
16352;SDS011;8286;51.274;9.542;2022-12-07T02:49:56;29.60;;;12.27;;
16352;SDS011;8286;51.274;9.542;2022-12-07T02:52:22;27.07;;;12.40;;
16352;SDS011;8286;51.274;9.542;2022-12-07T02:54:49;27.43;;;11.87;;
16352;SDS011;8286;51.274;9.542;2022-12-07T02:57:23;32.27;;;13.53;;
16352;SDS011;8286;51.274;9.542;2022-12-07T02:59:59;32.20;;;13.60;;
16352;SDS011;8286;51.274;9.542;2022-12-07T03:02:31;34.37;;;14.10;;
16352;SDS011;8286;51.274;9.542;2022-12-07T03:05:07;31.30;;;11.83;;
16352;SDS011;8286;51.274;9.542;2022-12-07T03:07:42;30.50;;;11.13;;
16352;SDS011;8286;51.274;9.542;2022-12-07T03:10:14;25.70;;;12.00;;
16352;SDS011;8286;51.274;9.542;2022-12-07T03:12:45;28.70;;;13.27;;
16352;SDS011;8286;51.274;9.542;2022-12-07T03:15:21;26.53;;;11.33;;
16352;SDS011;8286;51.274;9.542;2022-12-07T03:17:52;25.20;;;12.03;;
16352;SDS011;8286;51.274;9.542;2022-12-07T03:20:20;27.07;;;11.70;;
16352;SDS011;8286;51.274;9.542;2022-12-07T03:22:48;30.73;;;13.83;;
16352;SDS011;8286;51.274;9.542;2022-12-07T03:25:16;25.13;;;12.33;;
16352;SDS011;8286;51.274;9.542;2022-12-07T03:27:44;29.60;;;12.30;;
16352;SDS011;8286;51.274;9.542;2022-12-07T03:30:15;33.30;;;13.37;;
16352;SDS011;8286;51.274;9.542;2022-12-07T03:32:47;29.17;;;12.37;;
16352;SDS011;8286;51.274;9.542;2022-12-07T03:35:16;30.13;;;13.17;;
16352;SDS011;8286;51.274;9.542;2022-12-07T03:37:45;32.27;;;12.73;;
16352;SDS011;8286;51.274;9.542;2022-12-07T03:40:15;36.20;;;13.60;;
16352;SDS011;8286;51.274;9.542;2022-12-07T03:42:45;27.50;;;12.17;;
16352;SDS011;8286;51.274;9.542;2022-12-07T03:45:12;37.97;;;14.50;;
16352;SDS011;8286;51.274;9.542;2022-12-07T03:47:42;30.30;;;12.53;;
16352;SDS011;8286;51.274;9.542;2022-12-07T03:50:15;33.47;;;13.70;;
16352;SDS011;8286;51.274;9.542;2022-12-07T03:52:46;30.70;;;13.33;;
16352;SDS011;8286;51.274;9.542;2022-12-07T03:55:14;39.80;;;13.70;;
16352;SDS011;8286;51.274;9.542;2022-12-07T03:57:43;36.27;;;13.50;;
16352;SDS011;8286;51.274;9.542;2022-12-07T04:00:11;35.47;;;14.17;;
16352;SDS011;8286;51.274;9.542;2022-12-07T04:02:38;40.50;;;13.07;;
16352;SDS011;8286;51.274;9.542;2022-12-07T04:05:07;37.73;;;13.40;;
16352;SDS011;8286;51.274;9.542;2022-12-07T04:07:34;34.17;;;13.53;;
16352;SDS011;8286;51.274;9.542;2022-12-07T04:10:01;33.50;;;13.37;;
16352;SDS011;8286;51.274;9.542;2022-12-07T04:12:28;33.40;;;13.27;;
16352;SDS011;8286;51.274;9.542;2022-12-07T04:14:54;34.80;;;13.00;;
16352;SDS011;8286;51.274;9.542;2022-12-07T04:17:21;35.20;;;14.57;;
16352;SDS011;8286;51.274;9.542;2022-12-07T04:19:47;38.27;;;13.73;;
16352;SDS011;8286;51.274;9.542;2022-12-07T04:22:16;28.30;;;12.47;;
16352;SDS011;8286;51.274;9.542;2022-12-07T04:24:42;31.43;;;12.87;;
16352;SDS011;8286;51.274;9.542;2022-12-07T04:27:09;38.87;;;14.43;;
16352;SDS011;8286;51.274;9.542;2022-12-07T04:29:36;25.07;;;11.97;;
16352;SDS011;8286;51.274;9.542;2022-12-07T04:32:02;31.47;;;12.70;;
16352;SDS011;8286;51.274;9.542;2022-12-07T04:34:29;26.73;;;11.37;;
16352;SDS011;8286;51.274;9.542;2022-12-07T04:36:56;29.17;;;12.73;;
16352;SDS011;8286;51.274;9.542;2022-12-07T04:39:25;33.17;;;13.00;;
16352;SDS011;8286;51.274;9.542;2022-12-07T04:41:53;29.20;;;12.37;;
16352;SDS011;8286;51.274;9.542;2022-12-07T04:44:20;27.33;;;11.67;;
16352;SDS011;8286;51.274;9.542;2022-12-07T04:46:49;29.63;;;10.80;;
16352;SDS011;8286;51.274;9.542;2022-12-07T04:49:17;29.93;;;12.30;;
16352;SDS011;8286;51.274;9.542;2022-12-07T04:51:44;24.47;;;10.87;;
16352;SDS011;8286;51.274;9.542;2022-12-07T04:54:10;29.17;;;12.13;;
16352;SDS011;8286;51.274;9.542;2022-12-07T04:56:39;29.80;;;12.20;;
16352;SDS011;8286;51.274;9.542;2022-12-07T04:59:05;30.13;;;12.43;;
16352;SDS011;8286;51.274;9.542;2022-12-07T05:01:32;23.93;;;10.77;;
16352;SDS011;8286;51.274;9.542;2022-12-07T05:03:59;25.83;;;10.20;;
16352;SDS011;8286;51.274;9.542;2022-12-07T05:06:26;25.60;;;10.33;;
16352;SDS011;8286;51.274;9.542;2022-12-07T05:08:53;27.63;;;10.67;;
16352;SDS011;8286;51.274;9.542;2022-12-07T05:11:20;25.87;;;11.17;;
16352;SDS011;8286;51.274;9.542;2022-12-07T05:14:07;26.10;;;10.30;;
16352;SDS011;8286;51.274;9.542;2022-12-07T05:16:35;22.33;;;10.17;;
16352;SDS011;8286;51.274;9.542;2022-12-07T05:19:02;27.63;;;11.07;;
16352;SDS011;8286;51.274;9.542;2022-12-07T05:21:29;24.90;;;10.90;;
16352;SDS011;8286;51.274;9.542;2022-12-07T05:23:56;24.57;;;10.20;;
16352;SDS011;8286;51.274;9.542;2022-12-07T05:26:22;22.17;;;10.87;;
16352;SDS011;8286;51.274;9.542;2022-12-07T05:28:50;25.57;;;9.40;;
16352;SDS011;8286;51.274;9.542;2022-12-07T05:31:18;20.80;;;9.93;;
16352;SDS011;8286;51.274;9.542;2022-12-07T05:33:46;22.23;;;10.03;;
16352;SDS011;8286;51.274;9.542;2022-12-07T05:36:12;25.87;;;10.97;;
16352;SDS011;8286;51.274;9.542;2022-12-07T05:38:39;20.03;;;9.07;;
16352;SDS011;8286;51.274;9.542;2022-12-07T05:41:06;21.73;;;9.70;;
16352;SDS011;8286;51.274;9.542;2022-12-07T05:43:55;23.50;;;9.50;;
16352;SDS011;8286;51.274;9.542;2022-12-07T05:46:23;19.70;;;9.47;;
16352;SDS011;8286;51.274;9.542;2022-12-07T05:48:50;21.23;;;9.77;;
16352;SDS011;8286;51.274;9.542;2022-12-07T05:51:17;19.67;;;9.40;;
16352;SDS011;8286;51.274;9.542;2022-12-07T05:53:44;24.23;;;9.57;;
16352;SDS011;8286;51.274;9.542;2022-12-07T05:56:10;30.60;;;9.77;;
16352;SDS011;8286;51.274;9.542;2022-12-07T05:58:37;17.30;;;9.47;;
16352;SDS011;8286;51.274;9.542;2022-12-07T06:01:21;20.37;;;8.93;;
16352;SDS011;8286;51.274;9.542;2022-12-07T06:03:49;25.60;;;9.00;;
16352;SDS011;8286;51.274;9.542;2022-12-07T06:06:16;20.10;;;9.30;;
16352;SDS011;8286;51.274;9.542;2022-12-07T06:08:43;18.67;;;9.07;;
16352;SDS011;8286;51.274;9.542;2022-12-07T06:11:09;18.40;;;8.50;;
16352;SDS011;8286;51.274;9.542;2022-12-07T06:14:02;25.87;;;9.17;;
16352;SDS011;8286;51.274;9.542;2022-12-07T06:16:29;16.97;;;8.50;;
16352;SDS011;8286;51.274;9.542;2022-12-07T06:18:57;19.20;;;8.80;;
16352;SDS011;8286;51.274;9.542;2022-12-07T06:21:23;17.73;;;8.63;;
16352;SDS011;8286;51.274;9.542;2022-12-07T06:23:51;20.17;;;9.23;;
16352;SDS011;8286;51.274;9.542;2022-12-07T06:26:18;18.00;;;8.03;;
16352;SDS011;8286;51.274;9.542;2022-12-07T06:28:45;23.20;;;8.73;;
16352;SDS011;8286;51.274;9.542;2022-12-07T06:31:11;17.87;;;7.23;;
16352;SDS011;8286;51.274;9.542;2022-12-07T06:33:38;18.57;;;7.47;;
16352;SDS011;8286;51.274;9.542;2022-12-07T06:36:07;13.87;;;7.30;;
16352;SDS011;8286;51.274;9.542;2022-12-07T06:38:33;18.13;;;8.17;;
16352;SDS011;8286;51.274;9.542;2022-12-07T06:41:00;21.23;;;9.67;;
16352;SDS011;8286;51.274;9.542;2022-12-07T06:43:27;16.37;;;7.40;;
16352;SDS011;8286;51.274;9.542;2022-12-07T06:45:54;17.30;;;8.17;;
16352;SDS011;8286;51.274;9.542;2022-12-07T06:48:21;14.27;;;7.50;;
16352;SDS011;8286;51.274;9.542;2022-12-07T06:50:48;15.40;;;7.50;;
16352;SDS011;8286;51.274;9.542;2022-12-07T06:53:16;16.63;;;7.93;;
16352;SDS011;8286;51.274;9.542;2022-12-07T06:55:43;16.73;;;7.30;;
16352;SDS011;8286;51.274;9.542;2022-12-07T06:58:09;19.13;;;8.13;;
16352;SDS011;8286;51.274;9.542;2022-12-07T07:00:36;15.80;;;7.93;;
16352;SDS011;8286;51.274;9.542;2022-12-07T07:03:03;17.47;;;7.67;;
16352;SDS011;8286;51.274;9.542;2022-12-07T07:05:30;19.77;;;8.13;;
16352;SDS011;8286;51.274;9.542;2022-12-07T07:07:56;16.10;;;7.70;;
16352;SDS011;8286;51.274;9.542;2022-12-07T07:10:24;16.20;;;7.40;;
16352;SDS011;8286;51.274;9.542;2022-12-07T07:12:51;15.60;;;7.80;;
16352;SDS011;8286;51.274;9.542;2022-12-07T07:15:18;17.07;;;8.37;;
16352;SDS011;8286;51.274;9.542;2022-12-07T07:17:44;17.27;;;7.07;;
16352;SDS011;8286;51.274;9.542;2022-12-07T07:20:12;16.00;;;6.90;;
16352;SDS011;8286;51.274;9.542;2022-12-07T07:22:38;15.43;;;7.03;;
16352;SDS011;8286;51.274;9.542;2022-12-07T07:25:06;20.37;;;7.10;;
16352;SDS011;8286;51.274;9.542;2022-12-07T07:27:34;21.03;;;7.77;;
16352;SDS011;8286;51.274;9.542;2022-12-07T07:30:01;16.20;;;7.10;;
16352;SDS011;8286;51.274;9.542;2022-12-07T07:32:28;17.30;;;6.97;;
16352;SDS011;8286;51.274;9.542;2022-12-07T07:34:54;17.13;;;6.77;;
16352;SDS011;8286;51.274;9.542;2022-12-07T07:37:21;15.13;;;6.67;;
16352;SDS011;8286;51.274;9.542;2022-12-07T07:39:48;13.07;;;6.83;;
16352;SDS011;8286;51.274;9.542;2022-12-07T07:42:14;18.07;;;7.10;;
16352;SDS011;8286;51.274;9.542;2022-12-07T07:44:42;17.43;;;6.80;;
16352;SDS011;8286;51.274;9.542;2022-12-07T07:47:09;14.23;;;7.00;;
16352;SDS011;8286;51.274;9.542;2022-12-07T07:49:36;16.63;;;7.03;;
16352;SDS011;8286;51.274;9.542;2022-12-07T07:52:03;13.43;;;6.27;;
16352;SDS011;8286;51.274;9.542;2022-12-07T07:54:31;13.53;;;5.87;;
16352;SDS011;8286;51.274;9.542;2022-12-07T07:56:57;14.07;;;6.00;;
16352;SDS011;8286;51.274;9.542;2022-12-07T07:59:24;12.30;;;6.30;;
16352;SDS011;8286;51.274;9.542;2022-12-07T08:01:52;16.73;;;6.53;;
16352;SDS011;8286;51.274;9.542;2022-12-07T08:04:20;13.83;;;6.80;;
16352;SDS011;8286;51.274;9.542;2022-12-07T08:06:46;13.53;;;6.57;;
16352;SDS011;8286;51.274;9.542;2022-12-07T08:09:13;15.77;;;7.37;;
16352;SDS011;8286;51.274;9.542;2022-12-07T08:11:40;16.17;;;7.73;;
16352;SDS011;8286;51.274;9.542;2022-12-07T08:14:06;14.97;;;8.33;;
16352;SDS011;8286;51.274;9.542;2022-12-07T08:16:33;12.97;;;6.17;;
16352;SDS011;8286;51.274;9.542;2022-12-07T08:19:01;12.83;;;5.57;;
16352;SDS011;8286;51.274;9.542;2022-12-07T08:21:30;11.30;;;6.40;;
16352;SDS011;8286;51.274;9.542;2022-12-07T08:23:57;19.97;;;6.20;;
16352;SDS011;8286;51.274;9.542;2022-12-07T08:26:24;11.73;;;5.60;;
16352;SDS011;8286;51.274;9.542;2022-12-07T08:28:52;16.33;;;6.53;;
16352;SDS011;8286;51.274;9.542;2022-12-07T08:31:18;11.47;;;6.40;;
16352;SDS011;8286;51.274;9.542;2022-12-07T08:33:45;13.07;;;5.67;;
16352;SDS011;8286;51.274;9.542;2022-12-07T08:36:14;16.07;;;6.30;;
16352;SDS011;8286;51.274;9.542;2022-12-07T08:38:41;12.43;;;5.97;;
16352;SDS011;8286;51.274;9.542;2022-12-07T08:41:08;12.03;;;5.43;;
16352;SDS011;8286;51.274;9.542;2022-12-07T08:43:35;12.13;;;6.23;;
16352;SDS011;8286;51.274;9.542;2022-12-07T08:46:04;16.80;;;6.27;;
16352;SDS011;8286;51.274;9.542;2022-12-07T08:48:33;16.20;;;6.40;;
16352;SDS011;8286;51.274;9.542;2022-12-07T08:51:03;12.57;;;6.47;;
16352;SDS011;8286;51.274;9.542;2022-12-07T08:53:31;18.33;;;6.30;;
16352;SDS011;8286;51.274;9.542;2022-12-07T08:55:59;15.90;;;6.13;;
16352;SDS011;8286;51.274;9.542;2022-12-07T08:58:26;14.37;;;5.90;;
16352;SDS011;8286;51.274;9.542;2022-12-07T09:00:52;11.13;;;5.60;;
16352;SDS011;8286;51.274;9.542;2022-12-07T09:03:19;8.37;;;4.80;;
16352;SDS011;8286;51.274;9.542;2022-12-07T09:05:46;10.37;;;4.73;;
16352;SDS011;8286;51.274;9.542;2022-12-07T09:08:13;16.33;;;5.47;;
16352;SDS011;8286;51.274;9.542;2022-12-07T09:10:41;7.87;;;4.57;;
16352;SDS011;8286;51.274;9.542;2022-12-07T09:13:07;9.47;;;5.27;;
16352;SDS011;8286;51.274;9.542;2022-12-07T09:15:34;10.47;;;4.47;;
16352;SDS011;8286;51.274;9.542;2022-12-07T09:18:01;8.23;;;4.57;;
16352;SDS011;8286;51.274;9.542;2022-12-07T09:20:27;7.83;;;5.00;;
16352;SDS011;8286;51.274;9.542;2022-12-07T09:22:54;8.93;;;3.97;;
16352;SDS011;8286;51.274;9.542;2022-12-07T09:25:21;8.57;;;4.63;;
16352;SDS011;8286;51.274;9.542;2022-12-07T09:27:51;8.03;;;4.43;;
16352;SDS011;8286;51.274;9.542;2022-12-07T09:30:21;10.97;;;4.23;;
16352;SDS011;8286;51.274;9.542;2022-12-07T09:32:48;8.17;;;3.97;;
16352;SDS011;8286;51.274;9.542;2022-12-07T09:35:15;10.90;;;4.27;;
16352;SDS011;8286;51.274;9.542;2022-12-07T09:37:42;9.43;;;4.27;;
16352;SDS011;8286;51.274;9.542;2022-12-07T09:40:09;7.27;;;4.07;;
16352;SDS011;8286;51.274;9.542;2022-12-07T09:42:36;8.67;;;3.97;;
16352;SDS011;8286;51.274;9.542;2022-12-07T09:45:06;7.97;;;4.63;;
16352;SDS011;8286;51.274;9.542;2022-12-07T09:47:38;8.80;;;3.93;;
16352;SDS011;8286;51.274;9.542;2022-12-07T09:50:05;9.80;;;4.40;;
16352;SDS011;8286;51.274;9.542;2022-12-07T09:52:37;7.77;;;4.50;;
16352;SDS011;8286;51.274;9.542;2022-12-07T09:55:09;9.47;;;3.93;;
16352;SDS011;8286;51.274;9.542;2022-12-07T09:57:38;10.10;;;4.30;;
16352;SDS011;8286;51.274;9.542;2022-12-07T10:00:11;6.07;;;3.87;;
16352;SDS011;8286;51.274;9.542;2022-12-07T10:02:40;6.33;;;3.53;;
16352;SDS011;8286;51.274;9.542;2022-12-07T10:05:10;9.50;;;3.47;;
16352;SDS011;8286;51.274;9.542;2022-12-07T10:07:39;5.90;;;3.30;;
16352;SDS011;8286;51.274;9.542;2022-12-07T10:10:06;4.23;;;2.77;;
16352;SDS011;8286;51.274;9.542;2022-12-07T10:12:52;6.63;;;3.13;;
16352;SDS011;8286;51.274;9.542;2022-12-07T10:15:21;4.53;;;2.67;;
16352;SDS011;8286;51.274;9.542;2022-12-07T10:17:48;5.67;;;2.40;;
16352;SDS011;8286;51.274;9.542;2022-12-07T10:20:21;5.43;;;2.70;;
16352;SDS011;8286;51.274;9.542;2022-12-07T10:23:00;5.60;;;2.53;;
16352;SDS011;8286;51.274;9.542;2022-12-07T10:25:29;3.53;;;2.60;;
16352;SDS011;8286;51.274;9.542;2022-12-07T10:28:00;5.37;;;2.00;;
16352;SDS011;8286;51.274;9.542;2022-12-07T10:30:29;2.73;;;2.17;;
16352;SDS011;8286;51.274;9.542;2022-12-07T10:32:56;3.27;;;2.13;;
16352;SDS011;8286;51.274;9.542;2022-12-07T10:35:24;2.70;;;2.23;;
16352;SDS011;8286;51.274;9.542;2022-12-07T10:37:53;3.20;;;2.00;;
16352;SDS011;8286;51.274;9.542;2022-12-07T10:40:28;3.30;;;2.33;;
16352;SDS011;8286;51.274;9.542;2022-12-07T10:43:00;4.00;;;2.30;;
16352;SDS011;8286;51.274;9.542;2022-12-07T10:45:29;8.90;;;2.60;;
16352;SDS011;8286;51.274;9.542;2022-12-07T10:47:58;5.37;;;2.67;;
16352;SDS011;8286;51.274;9.542;2022-12-07T10:50:35;3.90;;;2.30;;
16352;SDS011;8286;51.274;9.542;2022-12-07T10:53:13;3.17;;;2.03;;
16352;SDS011;8286;51.274;9.542;2022-12-07T10:56:10;2.07;;;1.80;;
16352;SDS011;8286;51.274;9.542;2022-12-07T10:58:59;7.87;;;2.23;;
16352;SDS011;8286;51.274;9.542;2022-12-07T11:01:36;2.37;;;1.73;;
16352;SDS011;8286;51.274;9.542;2022-12-07T11:04:16;1.97;;;1.87;;
16352;SDS011;8286;51.274;9.542;2022-12-07T11:06:49;6.37;;;2.53;;
16352;SDS011;8286;51.274;9.542;2022-12-07T11:09:36;4.03;;;2.10;;
16352;SDS011;8286;51.274;9.542;2022-12-07T11:12:16;2.20;;;2.00;;
16352;SDS011;8286;51.274;9.542;2022-12-07T11:14:51;3.00;;;2.23;;
16352;SDS011;8286;51.274;9.542;2022-12-07T11:17:23;3.20;;;2.20;;
16352;SDS011;8286;51.274;9.542;2022-12-07T11:19:59;1.70;;;1.60;;
16352;SDS011;8286;51.274;9.542;2022-12-07T11:22:31;2.30;;;2.10;;
16352;SDS011;8286;51.274;9.542;2022-12-07T11:25:10;2.07;;;1.60;;
16352;SDS011;8286;51.274;9.542;2022-12-07T11:27:43;2.77;;;1.73;;
16352;SDS011;8286;51.274;9.542;2022-12-07T11:30:14;3.53;;;1.77;;
16352;SDS011;8286;51.274;9.542;2022-12-07T11:35:42;3.93;;;2.10;;
16352;SDS011;8286;51.274;9.542;2022-12-07T11:38:15;3.17;;;1.33;;
16352;SDS011;8286;51.274;9.542;2022-12-07T11:40:43;4.90;;;2.07;;
16352;SDS011;8286;51.274;9.542;2022-12-07T11:43:13;4.53;;;2.70;;
16352;SDS011;8286;51.274;9.542;2022-12-07T11:45:44;5.10;;;2.23;;
16352;SDS011;8286;51.274;9.542;2022-12-07T11:48:15;3.60;;;1.80;;
16352;SDS011;8286;51.274;9.542;2022-12-07T11:50:46;4.00;;;2.33;;
16352;SDS011;8286;51.274;9.542;2022-12-07T11:53:16;2.00;;;1.90;;
16352;SDS011;8286;51.274;9.542;2022-12-07T11:55:47;7.10;;;2.30;;
16352;SDS011;8286;51.274;9.542;2022-12-07T11:58:29;6.60;;;1.80;;
16352;SDS011;8286;51.274;9.542;2022-12-07T12:03:38;2.13;;;1.67;;
16352;SDS011;8286;51.274;9.542;2022-12-07T12:06:07;4.53;;;2.17;;
16352;SDS011;8286;51.274;9.542;2022-12-07T12:08:35;3.43;;;1.87;;
16352;SDS011;8286;51.274;9.542;2022-12-07T12:11:08;4.93;;;1.93;;
16352;SDS011;8286;51.274;9.542;2022-12-07T12:13:51;3.80;;;1.80;;
16352;SDS011;8286;51.274;9.542;2022-12-07T12:16:48;3.27;;;1.97;;
16352;SDS011;8286;51.274;9.542;2022-12-07T12:19:28;2.70;;;1.77;;
16352;SDS011;8286;51.274;9.542;2022-12-07T12:22:00;1.93;;;1.83;;
16352;SDS011;8286;51.274;9.542;2022-12-07T12:24:32;5.43;;;1.80;;
16352;SDS011;8286;51.274;9.542;2022-12-07T12:27:02;4.90;;;1.40;;
16352;SDS011;8286;51.274;9.542;2022-12-07T12:29:31;7.57;;;2.30;;
16352;SDS011;8286;51.274;9.542;2022-12-07T12:32:07;18.43;;;2.13;;
16352;SDS011;8286;51.274;9.542;2022-12-07T12:34:41;4.10;;;1.63;;
16352;SDS011;8286;51.274;9.542;2022-12-07T12:37:38;2.67;;;1.63;;
16352;SDS011;8286;51.274;9.542;2022-12-07T12:49:15;7.33;;;2.33;;
16352;SDS011;8286;51.274;9.542;2022-12-07T12:52:00;2.20;;;1.80;;
16352;SDS011;8286;51.274;9.542;2022-12-07T12:54:29;3.63;;;1.80;;
16352;SDS011;8286;51.274;9.542;2022-12-07T12:56:58;2.60;;;1.80;;
16352;SDS011;8286;51.274;9.542;2022-12-07T12:59:28;2.60;;;1.70;;
16352;SDS011;8286;51.274;9.542;2022-12-07T13:01:56;3.37;;;2.10;;
16352;SDS011;8286;51.274;9.542;2022-12-07T13:04:49;5.90;;;3.30;;
16352;SDS011;8286;51.274;9.542;2022-12-07T13:25:07;5.83;;;2.27;;
16352;SDS011;8286;51.274;9.542;2022-12-07T13:27:35;3.20;;;2.67;;
16352;SDS011;8286;51.274;9.542;2022-12-07T13:30:06;5.80;;;2.97;;
16352;SDS011;8286;51.274;9.542;2022-12-07T13:32:39;5.73;;;2.70;;
16352;SDS011;8286;51.274;9.542;2022-12-07T13:37:54;6.30;;;3.20;;
16352;SDS011;8286;51.274;9.542;2022-12-07T13:40:23;6.93;;;2.80;;
16352;SDS011;8286;51.274;9.542;2022-12-07T13:42:56;4.40;;;2.80;;
16352;SDS011;8286;51.274;9.542;2022-12-07T13:45:24;7.53;;;3.30;;
16352;SDS011;8286;51.274;9.542;2022-12-07T13:48:14;9.90;;;2.83;;
16352;SDS011;8286;51.274;9.542;2022-12-07T13:50:42;9.77;;;3.10;;
16352;SDS011;8286;51.274;9.542;2022-12-07T13:53:11;5.20;;;2.70;;
16352;SDS011;8286;51.274;9.542;2022-12-07T13:55:45;3.97;;;2.80;;
16352;SDS011;8286;51.274;9.542;2022-12-07T13:58:12;4.20;;;2.83;;
16352;SDS011;8286;51.274;9.542;2022-12-07T14:00:40;9.00;;;3.50;;
16352;SDS011;8286;51.274;9.542;2022-12-07T14:03:22;3.43;;;3.13;;
16352;SDS011;8286;51.274;9.542;2022-12-07T14:06:02;10.97;;;3.27;;
16352;SDS011;8286;51.274;9.542;2022-12-07T14:08:30;5.50;;;3.37;;
16352;SDS011;8286;51.274;9.542;2022-12-07T14:10:59;6.63;;;3.70;;
16352;SDS011;8286;51.274;9.542;2022-12-07T14:13:27;17.13;;;3.17;;
16352;SDS011;8286;51.274;9.542;2022-12-07T14:15:57;6.27;;;3.10;;
16352;SDS011;8286;51.274;9.542;2022-12-07T14:18:26;2.87;;;2.67;;
16352;SDS011;8286;51.274;9.542;2022-12-07T14:21:02;8.13;;;2.93;;
16352;SDS011;8286;51.274;9.542;2022-12-07T14:23:29;8.50;;;3.40;;
16352;SDS011;8286;51.274;9.542;2022-12-07T14:26:04;5.33;;;3.30;;
16352;SDS011;8286;51.274;9.542;2022-12-07T14:28:33;7.90;;;3.57;;
16352;SDS011;8286;51.274;9.542;2022-12-07T14:31:01;4.23;;;2.60;;
16352;SDS011;8286;51.274;9.542;2022-12-07T14:33:28;6.20;;;2.30;;
16352;SDS011;8286;51.274;9.542;2022-12-07T14:35:55;3.63;;;3.17;;
16352;SDS011;8286;51.274;9.542;2022-12-07T14:38:23;6.60;;;2.80;;
16352;SDS011;8286;51.274;9.542;2022-12-07T14:40:50;5.63;;;2.83;;
16352;SDS011;8286;51.274;9.542;2022-12-07T14:43:19;2.73;;;2.53;;
16352;SDS011;8286;51.274;9.542;2022-12-07T14:45:46;8.37;;;2.60;;
16352;SDS011;8286;51.274;9.542;2022-12-07T14:48:13;6.70;;;2.57;;
16352;SDS011;8286;51.274;9.542;2022-12-07T14:50:42;5.27;;;3.07;;
16352;SDS011;8286;51.274;9.542;2022-12-07T14:53:12;9.63;;;3.10;;
16352;SDS011;8286;51.274;9.542;2022-12-07T14:55:39;4.17;;;2.70;;
16352;SDS011;8286;51.274;9.542;2022-12-07T14:58:07;3.40;;;3.10;;
16352;SDS011;8286;51.274;9.542;2022-12-07T15:00:40;5.43;;;2.60;;
16352;SDS011;8286;51.274;9.542;2022-12-07T15:03:06;7.27;;;3.10;;
16352;SDS011;8286;51.274;9.542;2022-12-07T15:05:33;6.07;;;2.83;;
16352;SDS011;8286;51.274;9.542;2022-12-07T15:08:00;8.13;;;3.43;;
16352;SDS011;8286;51.274;9.542;2022-12-07T15:10:31;8.70;;;3.27;;
16352;SDS011;8286;51.274;9.542;2022-12-07T15:12:59;6.43;;;2.93;;
16352;SDS011;8286;51.274;9.542;2022-12-07T15:15:48;3.97;;;2.80;;
16352;SDS011;8286;51.274;9.542;2022-12-07T15:18:15;11.57;;;2.90;;
16352;SDS011;8286;51.274;9.542;2022-12-07T15:20:42;7.23;;;3.30;;
16352;SDS011;8286;51.274;9.542;2022-12-07T15:23:09;9.30;;;3.67;;
16352;SDS011;8286;51.274;9.542;2022-12-07T15:25:36;8.27;;;3.20;;
16352;SDS011;8286;51.274;9.542;2022-12-07T15:28:06;5.73;;;3.90;;
16352;SDS011;8286;51.274;9.542;2022-12-07T15:30:33;7.43;;;3.27;;
16352;SDS011;8286;51.274;9.542;2022-12-07T15:33:01;7.67;;;3.57;;
16352;SDS011;8286;51.274;9.542;2022-12-07T15:35:27;4.70;;;2.97;;
16352;SDS011;8286;51.274;9.542;2022-12-07T15:37:54;6.43;;;3.03;;
16352;SDS011;8286;51.274;9.542;2022-12-07T15:40:21;4.33;;;3.43;;
16352;SDS011;8286;51.274;9.542;2022-12-07T15:42:47;15.53;;;3.90;;
16352;SDS011;8286;51.274;9.542;2022-12-07T15:45:14;4.07;;;2.93;;